sensor_id;sensor_type;location;lat;lon;timestamp;P1;durP1;ratioP1;P2;durP2;ratioP2
14276;SDS011;7222;57.346;12.150;2022-08-19T00:01:54;15.87;;;12.87;;
14276;SDS011;7222;57.346;12.150;2022-08-19T00:04:23;14.20;;;12.80;;
14276;SDS011;7222;57.346;12.150;2022-08-19T00:06:52;16.10;;;14.40;;
14276;SDS011;7222;57.346;12.150;2022-08-19T00:09:22;14.10;;;11.93;;
14276;SDS011;7222;57.346;12.150;2022-08-19T00:11:50;17.50;;;14.60;;
14276;SDS011;7222;57.346;12.150;2022-08-19T00:14:18;14.33;;;12.70;;
14276;SDS011;7222;57.346;12.150;2022-08-19T00:16:47;20.40;;;16.50;;
14276;SDS011;7222;57.346;12.150;2022-08-19T00:19:16;19.07;;;14.77;;
14276;SDS011;7222;57.346;12.150;2022-08-19T00:21:43;18.60;;;14.67;;
14276;SDS011;7222;57.346;12.150;2022-08-19T00:24:11;14.43;;;10.97;;
14276;SDS011;7222;57.346;12.150;2022-08-19T00:26:41;13.13;;;11.40;;
14276;SDS011;7222;57.346;12.150;2022-08-19T00:29:11;16.20;;;13.23;;
14276;SDS011;7222;57.346;12.150;2022-08-19T00:31:40;14.23;;;11.53;;
14276;SDS011;7222;57.346;12.150;2022-08-19T00:34:08;13.07;;;11.60;;
14276;SDS011;7222;57.346;12.150;2022-08-19T00:36:36;12.90;;;11.70;;
14276;SDS011;7222;57.346;12.150;2022-08-19T00:39:04;14.93;;;12.60;;
14276;SDS011;7222;57.346;12.150;2022-08-19T00:41:31;22.20;;;16.93;;
14276;SDS011;7222;57.346;12.150;2022-08-19T00:44:02;21.40;;;16.37;;
14276;SDS011;7222;57.346;12.150;2022-08-19T00:46:31;12.70;;;11.40;;
14276;SDS011;7222;57.346;12.150;2022-08-19T00:49:02;11.83;;;10.63;;
14276;SDS011;7222;57.346;12.150;2022-08-19T00:51:33;12.93;;;10.83;;
14276;SDS011;7222;57.346;12.150;2022-08-19T00:54:00;11.13;;;10.00;;
14276;SDS011;7222;57.346;12.150;2022-08-19T00:56:28;13.00;;;11.27;;
14276;SDS011;7222;57.346;12.150;2022-08-19T00:58:57;11.83;;;10.60;;
14276;SDS011;7222;57.346;12.150;2022-08-19T01:01:28;12.37;;;10.77;;
14276;SDS011;7222;57.346;12.150;2022-08-19T01:03:55;10.70;;;9.70;;
14276;SDS011;7222;57.346;12.150;2022-08-19T01:06:22;17.20;;;14.67;;
14276;SDS011;7222;57.346;12.150;2022-08-19T01:08:49;10.70;;;9.70;;
14276;SDS011;7222;57.346;12.150;2022-08-19T01:11:16;12.87;;;10.60;;
14276;SDS011;7222;57.346;12.150;2022-08-19T01:13:43;10.90;;;9.80;;
14276;SDS011;7222;57.346;12.150;2022-08-19T01:16:12;12.37;;;11.07;;
14276;SDS011;7222;57.346;12.150;2022-08-19T01:18:41;10.23;;;9.33;;
14276;SDS011;7222;57.346;12.150;2022-08-19T01:21:10;10.07;;;9.10;;
14276;SDS011;7222;57.346;12.150;2022-08-19T01:23:44;12.50;;;10.03;;
14276;SDS011;7222;57.346;12.150;2022-08-19T01:26:12;12.77;;;11.47;;
14276;SDS011;7222;57.346;12.150;2022-08-19T01:28:41;11.33;;;10.17;;
14276;SDS011;7222;57.346;12.150;2022-08-19T01:31:10;11.97;;;10.80;;
14276;SDS011;7222;57.346;12.150;2022-08-19T01:33:40;11.03;;;9.57;;
14276;SDS011;7222;57.346;12.150;2022-08-19T01:36:09;12.03;;;10.83;;
14276;SDS011;7222;57.346;12.150;2022-08-19T01:38:39;12.13;;;10.90;;
14276;SDS011;7222;57.346;12.150;2022-08-19T01:41:10;16.97;;;14.93;;
14276;SDS011;7222;57.346;12.150;2022-08-19T01:43:37;16.30;;;12.33;;
14276;SDS011;7222;57.346;12.150;2022-08-19T01:46:15;15.37;;;12.20;;
14276;SDS011;7222;57.346;12.150;2022-08-19T01:48:42;14.93;;;12.80;;
14276;SDS011;7222;57.346;12.150;2022-08-19T01:51:21;14.13;;;12.67;;
14276;SDS011;7222;57.346;12.150;2022-08-19T01:53:49;17.57;;;14.17;;
14276;SDS011;7222;57.346;12.150;2022-08-19T01:56:19;16.57;;;14.87;;
14276;SDS011;7222;57.346;12.150;2022-08-19T01:58:47;12.97;;;11.67;;
14276;SDS011;7222;57.346;12.150;2022-08-19T02:01:21;18.97;;;14.73;;
14276;SDS011;7222;57.346;12.150;2022-08-19T02:03:48;13.20;;;11.50;;
14276;SDS011;7222;57.346;12.150;2022-08-19T02:06:18;12.93;;;11.30;;
14276;SDS011;7222;57.346;12.150;2022-08-19T02:08:46;13.23;;;12.03;;
14276;SDS011;7222;57.346;12.150;2022-08-19T02:11:19;12.37;;;11.17;;
14276;SDS011;7222;57.346;12.150;2022-08-19T02:13:50;11.37;;;10.17;;
14276;SDS011;7222;57.346;12.150;2022-08-19T02:16:17;12.87;;;11.07;;
14276;SDS011;7222;57.346;12.150;2022-08-19T02:18:46;11.67;;;10.47;;
14276;SDS011;7222;57.346;12.150;2022-08-19T02:21:14;16.17;;;14.00;;
14276;SDS011;7222;57.346;12.150;2022-08-19T02:23:41;13.93;;;12.50;;
14276;SDS011;7222;57.346;12.150;2022-08-19T02:26:09;11.97;;;10.83;;
14276;SDS011;7222;57.346;12.150;2022-08-19T02:28:38;12.23;;;11.03;;
14276;SDS011;7222;57.346;12.150;2022-08-19T02:31:08;12.90;;;11.53;;
14276;SDS011;7222;57.346;12.150;2022-08-19T02:33:36;11.23;;;10.23;;
14276;SDS011;7222;57.346;12.150;2022-08-19T02:36:04;11.47;;;10.37;;
14276;SDS011;7222;57.346;12.150;2022-08-19T02:38:32;12.03;;;10.77;;
14276;SDS011;7222;57.346;12.150;2022-08-19T02:41:01;12.77;;;11.47;;
14276;SDS011;7222;57.346;12.150;2022-08-19T02:43:31;12.93;;;11.53;;
14276;SDS011;7222;57.346;12.150;2022-08-19T02:46:02;13.93;;;12.53;;
14276;SDS011;7222;57.346;12.150;2022-08-19T02:48:38;12.17;;;11.00;;
14276;SDS011;7222;57.346;12.150;2022-08-19T02:51:05;15.40;;;13.50;;
14276;SDS011;7222;57.346;12.150;2022-08-19T02:53:32;13.67;;;12.27;;
14276;SDS011;7222;57.346;12.150;2022-08-19T02:56:00;12.60;;;11.27;;
14276;SDS011;7222;57.346;12.150;2022-08-19T02:58:27;12.40;;;10.67;;
14276;SDS011;7222;57.346;12.150;2022-08-19T03:00:55;14.97;;;13.47;;
14276;SDS011;7222;57.346;12.150;2022-08-19T03:03:24;14.47;;;12.97;;
14276;SDS011;7222;57.346;12.150;2022-08-19T03:05:52;17.40;;;14.43;;
14276;SDS011;7222;57.346;12.150;2022-08-19T03:08:28;17.37;;;14.60;;
14276;SDS011;7222;57.346;12.150;2022-08-19T03:10:55;20.03;;;16.00;;
14276;SDS011;7222;57.346;12.150;2022-08-19T03:13:22;15.20;;;13.63;;
14276;SDS011;7222;57.346;12.150;2022-08-19T03:15:49;15.23;;;13.33;;
14276;SDS011;7222;57.346;12.150;2022-08-19T03:18:16;16.37;;;14.67;;
14276;SDS011;7222;57.346;12.150;2022-08-19T03:20:46;14.60;;;13.07;;
14276;SDS011;7222;57.346;12.150;2022-08-19T03:23:17;16.93;;;13.73;;
14276;SDS011;7222;57.346;12.150;2022-08-19T03:25:46;15.33;;;13.10;;
14276;SDS011;7222;57.346;12.150;2022-08-19T03:28:15;26.87;;;17.50;;
14276;SDS011;7222;57.346;12.150;2022-08-19T03:30:42;18.50;;;16.40;;
14276;SDS011;7222;57.346;12.150;2022-08-19T03:33:21;17.87;;;15.00;;
14276;SDS011;7222;57.346;12.150;2022-08-19T03:36:00;20.27;;;16.63;;
14276;SDS011;7222;57.346;12.150;2022-08-19T03:38:28;19.10;;;15.73;;
14276;SDS011;7222;57.346;12.150;2022-08-19T03:40:57;15.80;;;14.13;;
14276;SDS011;7222;57.346;12.150;2022-08-19T03:43:24;14.90;;;13.40;;
14276;SDS011;7222;57.346;12.150;2022-08-19T03:45:59;15.20;;;12.83;;
14276;SDS011;7222;57.346;12.150;2022-08-19T03:48:27;20.20;;;14.80;;
14276;SDS011;7222;57.346;12.150;2022-08-19T03:50:55;17.40;;;15.30;;
14276;SDS011;7222;57.346;12.150;2022-08-19T03:53:25;21.87;;;15.73;;
14276;SDS011;7222;57.346;12.150;2022-08-19T03:55:53;18.10;;;15.40;;
14276;SDS011;7222;57.346;12.150;2022-08-19T03:58:20;22.47;;;16.87;;
14276;SDS011;7222;57.346;12.150;2022-08-19T04:00:48;16.83;;;14.77;;
14276;SDS011;7222;57.346;12.150;2022-08-19T04:03:15;28.10;;;15.87;;
14276;SDS011;7222;57.346;12.150;2022-08-19T04:05:43;18.90;;;15.00;;
14276;SDS011;7222;57.346;12.150;2022-08-19T04:08:11;14.30;;;12.90;;
14276;SDS011;7222;57.346;12.150;2022-08-19T04:10:47;14.53;;;13.07;;
14276;SDS011;7222;57.346;12.150;2022-08-19T04:13:15;17.70;;;14.53;;
14276;SDS011;7222;57.346;12.150;2022-08-19T04:15:44;16.53;;;14.73;;
14276;SDS011;7222;57.346;12.150;2022-08-19T04:18:12;19.30;;;15.40;;
14276;SDS011;7222;57.346;12.150;2022-08-19T04:20:40;14.90;;;13.40;;
14276;SDS011;7222;57.346;12.150;2022-08-19T04:23:08;14.93;;;13.33;;
14276;SDS011;7222;57.346;12.150;2022-08-19T04:25:37;15.80;;;14.10;;
14276;SDS011;7222;57.346;12.150;2022-08-19T04:28:06;19.40;;;14.70;;
14276;SDS011;7222;57.346;12.150;2022-08-19T04:30:38;17.60;;;15.70;;
14276;SDS011;7222;57.346;12.150;2022-08-19T04:33:06;19.30;;;14.20;;
14276;SDS011;7222;57.346;12.150;2022-08-19T04:35:35;12.20;;;11.13;;
14276;SDS011;7222;57.346;12.150;2022-08-19T04:38:04;17.43;;;14.17;;
14276;SDS011;7222;57.346;12.150;2022-08-19T04:40:31;15.60;;;13.87;;
14276;SDS011;7222;57.346;12.150;2022-08-19T04:43:17;15.60;;;14.00;;
14276;SDS011;7222;57.346;12.150;2022-08-19T04:45:50;14.00;;;12.60;;
14276;SDS011;7222;57.346;12.150;2022-08-19T04:48:17;15.27;;;13.70;;
14276;SDS011;7222;57.346;12.150;2022-08-19T04:50:51;19.90;;;17.57;;
14276;SDS011;7222;57.346;12.150;2022-08-19T04:53:22;17.97;;;16.13;;
14276;SDS011;7222;57.346;12.150;2022-08-19T04:55:54;18.07;;;15.90;;
14276;SDS011;7222;57.346;12.150;2022-08-19T04:58:24;18.60;;;16.60;;
14276;SDS011;7222;57.346;12.150;2022-08-19T05:00:52;18.23;;;16.33;;
14276;SDS011;7222;57.346;12.150;2022-08-19T05:03:20;21.43;;;16.57;;
14276;SDS011;7222;57.346;12.150;2022-08-19T05:05:48;17.83;;;15.97;;
14276;SDS011;7222;57.346;12.150;2022-08-19T05:08:16;19.23;;;17.17;;
14276;SDS011;7222;57.346;12.150;2022-08-19T05:10:45;17.33;;;15.53;;
14276;SDS011;7222;57.346;12.150;2022-08-19T05:13:14;19.97;;;17.80;;
14276;SDS011;7222;57.346;12.150;2022-08-19T05:15:43;19.90;;;17.90;;
14276;SDS011;7222;57.346;12.150;2022-08-19T05:18:19;15.27;;;13.87;;
14276;SDS011;7222;57.346;12.150;2022-08-19T05:21:05;14.23;;;12.93;;
14276;SDS011;7222;57.346;12.150;2022-08-19T05:23:50;17.60;;;15.90;;
14276;SDS011;7222;57.346;12.150;2022-08-19T05:26:17;20.83;;;18.00;;
14276;SDS011;7222;57.346;12.150;2022-08-19T05:28:45;16.57;;;14.87;;
14276;SDS011;7222;57.346;12.150;2022-08-19T05:31:13;16.73;;;15.13;;
14276;SDS011;7222;57.346;12.150;2022-08-19T05:33:40;18.87;;;16.97;;
14276;SDS011;7222;57.346;12.150;2022-08-19T05:36:08;14.07;;;12.83;;
14276;SDS011;7222;57.346;12.150;2022-08-19T05:38:35;15.47;;;14.00;;
14276;SDS011;7222;57.346;12.150;2022-08-19T05:41:06;14.50;;;13.17;;
14276;SDS011;7222;57.346;12.150;2022-08-19T05:43:34;16.67;;;15.17;;
14276;SDS011;7222;57.346;12.150;2022-08-19T05:46:02;14.00;;;12.70;;
14276;SDS011;7222;57.346;12.150;2022-08-19T05:48:31;13.47;;;12.27;;
14276;SDS011;7222;57.346;12.150;2022-08-19T05:51:02;14.80;;;13.50;;
14276;SDS011;7222;57.346;12.150;2022-08-19T05:53:31;13.17;;;11.97;;
14276;SDS011;7222;57.346;12.150;2022-08-19T05:56:02;14.57;;;13.23;;
14276;SDS011;7222;57.346;12.150;2022-08-19T05:58:30;12.93;;;11.83;;
14276;SDS011;7222;57.346;12.150;2022-08-19T06:00:57;13.57;;;12.27;;
14276;SDS011;7222;57.346;12.150;2022-08-19T06:03:31;13.03;;;11.87;;
14276;SDS011;7222;57.346;12.150;2022-08-19T06:06:00;16.57;;;15.07;;
14276;SDS011;7222;57.346;12.150;2022-08-19T06:08:28;16.13;;;14.63;;
14276;SDS011;7222;57.346;12.150;2022-08-19T06:10:56;15.13;;;13.77;;
14276;SDS011;7222;57.346;12.150;2022-08-19T06:13:23;16.30;;;14.63;;
14276;SDS011;7222;57.346;12.150;2022-08-19T06:15:50;14.30;;;13.00;;
14276;SDS011;7222;57.346;12.150;2022-08-19T06:18:17;14.83;;;13.50;;
14276;SDS011;7222;57.346;12.150;2022-08-19T06:20:49;17.33;;;15.73;;
14276;SDS011;7222;57.346;12.150;2022-08-19T06:23:16;16.47;;;14.90;;
14276;SDS011;7222;57.346;12.150;2022-08-19T06:25:45;17.27;;;15.77;;
14276;SDS011;7222;57.346;12.150;2022-08-19T06:28:12;15.83;;;14.43;;
14276;SDS011;7222;57.346;12.150;2022-08-19T06:30:39;17.90;;;16.23;;
14276;SDS011;7222;57.346;12.150;2022-08-19T06:33:06;13.37;;;12.17;;
14276;SDS011;7222;57.346;12.150;2022-08-19T06:35:37;15.33;;;13.93;;
14276;SDS011;7222;57.346;12.150;2022-08-19T06:38:06;13.70;;;12.50;;
14276;SDS011;7222;57.346;12.150;2022-08-19T06:40:34;12.27;;;11.20;;
14276;SDS011;7222;57.346;12.150;2022-08-19T06:43:03;13.20;;;12.10;;
14276;SDS011;7222;57.346;12.150;2022-08-19T06:45:30;12.87;;;11.77;;
14276;SDS011;7222;57.346;12.150;2022-08-19T06:47:57;14.80;;;13.50;;
14276;SDS011;7222;57.346;12.150;2022-08-19T06:50:24;13.83;;;12.67;;
14276;SDS011;7222;57.346;12.150;2022-08-19T06:52:51;12.03;;;10.97;;
14276;SDS011;7222;57.346;12.150;2022-08-19T06:55:20;18.80;;;17.17;;
14276;SDS011;7222;57.346;12.150;2022-08-19T06:57:48;17.30;;;15.70;;
14276;SDS011;7222;57.346;12.150;2022-08-19T07:00:15;17.20;;;15.70;;
14276;SDS011;7222;57.346;12.150;2022-08-19T07:02:43;14.00;;;12.83;;
14276;SDS011;7222;57.346;12.150;2022-08-19T07:05:10;13.90;;;12.80;;
14276;SDS011;7222;57.346;12.150;2022-08-19T07:07:37;18.37;;;16.77;;
14276;SDS011;7222;57.346;12.150;2022-08-19T07:10:08;14.73;;;13.43;;
14276;SDS011;7222;57.346;12.150;2022-08-19T07:12:37;17.30;;;15.73;;
14276;SDS011;7222;57.346;12.150;2022-08-19T07:15:06;15.93;;;14.53;;
14276;SDS011;7222;57.346;12.150;2022-08-19T07:17:34;17.27;;;15.67;;
14276;SDS011;7222;57.346;12.150;2022-08-19T07:20:04;13.83;;;12.73;;
14276;SDS011;7222;57.346;12.150;2022-08-19T07:22:33;15.73;;;14.27;;
14276;SDS011;7222;57.346;12.150;2022-08-19T07:25:00;13.40;;;12.37;;
14276;SDS011;7222;57.346;12.150;2022-08-19T07:27:28;14.53;;;13.20;;
14276;SDS011;7222;57.346;12.150;2022-08-19T07:29:57;17.40;;;15.90;;
14276;SDS011;7222;57.346;12.150;2022-08-19T07:32:24;13.50;;;12.50;;
14276;SDS011;7222;57.346;12.150;2022-08-19T07:34:52;14.13;;;12.93;;
14276;SDS011;7222;57.346;12.150;2022-08-19T07:37:19;13.40;;;12.33;;
14276;SDS011;7222;57.346;12.150;2022-08-19T07:39:46;16.97;;;15.47;;
14276;SDS011;7222;57.346;12.150;2022-08-19T07:42:13;16.33;;;14.93;;
14276;SDS011;7222;57.346;12.150;2022-08-19T07:44:42;17.90;;;16.37;;
14276;SDS011;7222;57.346;12.150;2022-08-19T07:47:10;17.50;;;15.90;;
14276;SDS011;7222;57.346;12.150;2022-08-19T07:49:40;12.93;;;11.90;;
14276;SDS011;7222;57.346;12.150;2022-08-19T07:52:08;12.90;;;11.87;;
14276;SDS011;7222;57.346;12.150;2022-08-19T07:54:36;15.70;;;14.50;;
14276;SDS011;7222;57.346;12.150;2022-08-19T07:57:05;12.80;;;11.87;;
14276;SDS011;7222;57.346;12.150;2022-08-19T07:59:33;14.13;;;13.03;;
14276;SDS011;7222;57.346;12.150;2022-08-19T08:02:01;17.37;;;15.97;;
14276;SDS011;7222;57.346;12.150;2022-08-19T08:04:30;12.70;;;11.63;;
14276;SDS011;7222;57.346;12.150;2022-08-19T08:07:13;15.00;;;13.80;;
14276;SDS011;7222;57.346;12.150;2022-08-19T08:10:00;13.03;;;11.93;;
14276;SDS011;7222;57.346;12.150;2022-08-19T08:12:31;13.53;;;12.33;;
14276;SDS011;7222;57.346;12.150;2022-08-19T08:15:00;11.97;;;11.07;;
14276;SDS011;7222;57.346;12.150;2022-08-19T08:17:31;14.67;;;13.50;;
14276;SDS011;7222;57.346;12.150;2022-08-19T08:19:59;17.50;;;16.10;;
14276;SDS011;7222;57.346;12.150;2022-08-19T08:22:27;17.53;;;16.00;;
14276;SDS011;7222;57.346;12.150;2022-08-19T08:25:13;16.20;;;14.77;;
14276;SDS011;7222;57.346;12.150;2022-08-19T08:27:42;13.43;;;12.40;;
14276;SDS011;7222;57.346;12.150;2022-08-19T08:30:17;17.50;;;15.97;;
14276;SDS011;7222;57.346;12.150;2022-08-19T08:32:45;15.27;;;13.97;;
14276;SDS011;7222;57.346;12.150;2022-08-19T08:35:15;13.93;;;12.73;;
14276;SDS011;7222;57.346;12.150;2022-08-19T08:37:44;15.13;;;13.87;;
14276;SDS011;7222;57.346;12.150;2022-08-19T08:40:29;13.73;;;12.73;;
14276;SDS011;7222;57.346;12.150;2022-08-19T08:43:05;14.13;;;13.00;;
14276;SDS011;7222;57.346;12.150;2022-08-19T08:45:34;15.23;;;13.90;;
14276;SDS011;7222;57.346;12.150;2022-08-19T08:48:10;13.97;;;12.87;;
14276;SDS011;7222;57.346;12.150;2022-08-19T08:50:45;15.23;;;13.73;;
14276;SDS011;7222;57.346;12.150;2022-08-19T08:53:16;14.70;;;13.60;;
14276;SDS011;7222;57.346;12.150;2022-08-19T08:55:45;15.17;;;13.97;;
14276;SDS011;7222;57.346;12.150;2022-08-19T08:58:13;14.00;;;13.00;;
14276;SDS011;7222;57.346;12.150;2022-08-19T09:00:45;13.97;;;12.90;;
14276;SDS011;7222;57.346;12.150;2022-08-19T09:03:16;14.93;;;13.73;;
14276;SDS011;7222;57.346;12.150;2022-08-19T09:05:50;14.10;;;13.00;;
14276;SDS011;7222;57.346;12.150;2022-08-19T09:08:27;13.03;;;12.10;;
14276;SDS011;7222;57.346;12.150;2022-08-19T09:11:05;13.93;;;12.73;;
14276;SDS011;7222;57.346;12.150;2022-08-19T09:13:35;14.63;;;13.43;;
14276;SDS011;7222;57.346;12.150;2022-08-19T09:16:10;14.03;;;12.80;;
14276;SDS011;7222;57.346;12.150;2022-08-19T09:18:40;14.43;;;13.33;;
14276;SDS011;7222;57.346;12.150;2022-08-19T09:21:09;14.30;;;13.20;;
14276;SDS011;7222;57.346;12.150;2022-08-19T09:23:36;14.70;;;13.40;;
14276;SDS011;7222;57.346;12.150;2022-08-19T09:26:06;13.70;;;12.57;;
14276;SDS011;7222;57.346;12.150;2022-08-19T09:28:35;11.63;;;10.73;;
14276;SDS011;7222;57.346;12.150;2022-08-19T09:31:02;11.27;;;10.43;;
14276;SDS011;7222;57.346;12.150;2022-08-19T09:33:29;14.43;;;13.13;;
14276;SDS011;7222;57.346;12.150;2022-08-19T09:36:04;14.23;;;13.10;;
14276;SDS011;7222;57.346;12.150;2022-08-19T09:38:34;13.50;;;12.53;;
14276;SDS011;7222;57.346;12.150;2022-08-19T09:41:04;13.40;;;12.33;;
14276;SDS011;7222;57.346;12.150;2022-08-19T09:43:31;12.87;;;11.90;;
14276;SDS011;7222;57.346;12.150;2022-08-19T09:45:59;11.43;;;10.63;;
14276;SDS011;7222;57.346;12.150;2022-08-19T09:48:26;12.17;;;11.17;;
14276;SDS011;7222;57.346;12.150;2022-08-19T09:50:53;12.30;;;11.37;;
14276;SDS011;7222;57.346;12.150;2022-08-19T09:53:20;11.60;;;10.70;;
14276;SDS011;7222;57.346;12.150;2022-08-19T09:55:49;11.60;;;10.60;;
14276;SDS011;7222;57.346;12.150;2022-08-19T09:58:16;11.37;;;10.47;;
14276;SDS011;7222;57.346;12.150;2022-08-19T10:00:43;14.33;;;13.27;;
14276;SDS011;7222;57.346;12.150;2022-08-19T10:03:10;12.27;;;11.27;;
14276;SDS011;7222;57.346;12.150;2022-08-19T10:05:37;14.53;;;13.43;;
14276;SDS011;7222;57.346;12.150;2022-08-19T10:08:18;13.77;;;12.57;;
14276;SDS011;7222;57.346;12.150;2022-08-19T10:10:48;12.83;;;11.87;;
14276;SDS011;7222;57.346;12.150;2022-08-19T10:13:17;11.30;;;10.40;;
14276;SDS011;7222;57.346;12.150;2022-08-19T10:15:47;11.63;;;10.53;;
14276;SDS011;7222;57.346;12.150;2022-08-19T10:18:16;12.70;;;11.80;;
14276;SDS011;7222;57.346;12.150;2022-08-19T10:20:43;10.73;;;9.93;;
14276;SDS011;7222;57.346;12.150;2022-08-19T10:23:11;13.90;;;12.77;;
14276;SDS011;7222;57.346;12.150;2022-08-19T10:25:38;10.87;;;9.97;;
14276;SDS011;7222;57.346;12.150;2022-08-19T10:28:06;11.63;;;10.83;;
14276;SDS011;7222;57.346;12.150;2022-08-19T10:30:33;13.37;;;12.30;;
14276;SDS011;7222;57.346;12.150;2022-08-19T10:33:02;13.27;;;12.17;;
14276;SDS011;7222;57.346;12.150;2022-08-19T10:35:29;12.77;;;11.77;;
14276;SDS011;7222;57.346;12.150;2022-08-19T10:37:56;13.77;;;12.67;;
14276;SDS011;7222;57.346;12.150;2022-08-19T10:40:24;12.80;;;11.80;;
14276;SDS011;7222;57.346;12.150;2022-08-19T10:42:52;12.50;;;11.47;;
14276;SDS011;7222;57.346;12.150;2022-08-19T10:45:20;12.37;;;11.47;;
14276;SDS011;7222;57.346;12.150;2022-08-19T10:47:50;12.90;;;12.00;;
14276;SDS011;7222;57.346;12.150;2022-08-19T10:50:18;11.43;;;10.53;;
14276;SDS011;7222;57.346;12.150;2022-08-19T10:53:03;13.40;;;12.40;;
14276;SDS011;7222;57.346;12.150;2022-08-19T10:55:33;13.00;;;12.00;;
14276;SDS011;7222;57.346;12.150;2022-08-19T10:58:18;13.53;;;12.27;;
14276;SDS011;7222;57.346;12.150;2022-08-19T11:00:53;10.27;;;9.57;;
14276;SDS011;7222;57.346;12.150;2022-08-19T11:03:21;12.50;;;11.60;;
14276;SDS011;7222;57.346;12.150;2022-08-19T11:05:56;12.95;;;11.95;;
14276;SDS011;7222;57.346;12.150;2022-08-19T11:08:24;14.20;;;13.00;;
14276;SDS011;7222;57.346;12.150;2022-08-19T11:10:52;13.73;;;12.63;;
14276;SDS011;7222;57.346;12.150;2022-08-19T11:13:25;10.20;;;9.50;;
14276;SDS011;7222;57.346;12.150;2022-08-19T11:15:58;10.68;;;9.95;;
14276;SDS011;7222;57.346;12.150;2022-08-19T11:18:26;14.30;;;13.07;;
14276;SDS011;7222;57.346;12.150;2022-08-19T11:20:53;10.15;;;9.45;;
14276;SDS011;7222;57.346;12.150;2022-08-19T11:23:20;12.75;;;11.68;;
14276;SDS011;7222;57.346;12.150;2022-08-19T11:25:47;13.70;;;12.65;;
14276;SDS011;7222;57.346;12.150;2022-08-19T11:28:15;10.32;;;9.63;;
14276;SDS011;7222;57.346;12.150;2022-08-19T11:30:42;10.25;;;9.55;;
14276;SDS011;7222;57.346;12.150;2022-08-19T11:33:10;13.73;;;12.63;;
14276;SDS011;7222;57.346;12.150;2022-08-19T11:35:38;11.40;;;10.50;;
14276;SDS011;7222;57.346;12.150;2022-08-19T11:38:06;10.60;;;9.88;;
14276;SDS011;7222;57.346;12.150;2022-08-19T11:40:33;11.25;;;10.30;;
14276;SDS011;7222;57.346;12.150;2022-08-19T11:43:00;11.52;;;10.73;;
14276;SDS011;7222;57.346;12.150;2022-08-19T11:45:27;10.60;;;9.80;;
14276;SDS011;7222;57.346;12.150;2022-08-19T11:47:54;10.45;;;9.68;;
14276;SDS011;7222;57.346;12.150;2022-08-19T11:50:23;10.27;;;9.48;;
14276;SDS011;7222;57.346;12.150;2022-08-19T11:52:53;10.40;;;9.65;;
14276;SDS011;7222;57.346;12.150;2022-08-19T11:55:20;11.55;;;10.75;;
14276;SDS011;7222;57.346;12.150;2022-08-19T11:57:48;10.23;;;9.48;;
14276;SDS011;7222;57.346;12.150;2022-08-19T12:00:15;11.63;;;10.73;;
14276;SDS011;7222;57.346;12.150;2022-08-19T12:02:42;10.35;;;9.55;;
14276;SDS011;7222;57.346;12.150;2022-08-19T12:05:09;12.13;;;11.20;;
14276;SDS011;7222;57.346;12.150;2022-08-19T12:07:37;12.60;;;11.50;;
14276;SDS011;7222;57.346;12.150;2022-08-19T12:10:06;11.90;;;10.88;;
14276;SDS011;7222;57.346;12.150;2022-08-19T12:12:33;10.63;;;9.93;;
14276;SDS011;7222;57.346;12.150;2022-08-19T12:15:03;10.73;;;9.93;;
14276;SDS011;7222;57.346;12.150;2022-08-19T12:17:30;12.20;;;11.30;;
14276;SDS011;7222;57.346;12.150;2022-08-19T12:19:57;11.60;;;10.70;;
14276;SDS011;7222;57.346;12.150;2022-08-19T12:22:24;12.00;;;11.10;;
14276;SDS011;7222;57.346;12.150;2022-08-19T12:24:52;11.20;;;10.30;;
14276;SDS011;7222;57.346;12.150;2022-08-19T12:27:20;10.77;;;9.98;;
14276;SDS011;7222;57.346;12.150;2022-08-19T12:29:47;10.95;;;10.15;;
14276;SDS011;7222;57.346;12.150;2022-08-19T12:32:14;11.00;;;10.10;;
14276;SDS011;7222;57.346;12.150;2022-08-19T12:34:41;11.43;;;10.52;;
14276;SDS011;7222;57.346;12.150;2022-08-19T12:37:09;12.27;;;11.27;;
14276;SDS011;7222;57.346;12.150;2022-08-19T12:39:38;11.65;;;10.75;;
14276;SDS011;7222;57.346;12.150;2022-08-19T12:42:08;11.43;;;10.52;;
14276;SDS011;7222;57.346;12.150;2022-08-19T12:44:35;10.40;;;9.60;;
14276;SDS011;7222;57.346;12.150;2022-08-19T12:47:04;12.90;;;11.75;;
14276;SDS011;7222;57.346;12.150;2022-08-19T12:49:33;13.18;;;12.07;;
14276;SDS011;7222;57.346;12.150;2022-08-19T12:52:02;11.77;;;10.80;;
14276;SDS011;7222;57.346;12.150;2022-08-19T12:54:29;11.65;;;10.70;;
14276;SDS011;7222;57.346;12.150;2022-08-19T12:56:57;11.63;;;10.63;;
14276;SDS011;7222;57.346;12.150;2022-08-19T12:59:26;11.80;;;10.80;;
14276;SDS011;7222;57.346;12.150;2022-08-19T13:01:53;10.43;;;9.63;;
14276;SDS011;7222;57.346;12.150;2022-08-19T13:04:20;14.05;;;12.85;;
14276;SDS011;7222;57.346;12.150;2022-08-19T13:06:47;13.35;;;12.10;;
14276;SDS011;7222;57.346;12.150;2022-08-19T13:09:14;12.73;;;11.63;;
14276;SDS011;7222;57.346;12.150;2022-08-19T13:11:41;11.93;;;10.93;;
14276;SDS011;7222;57.346;12.150;2022-08-19T13:14:08;10.18;;;9.45;;
14276;SDS011;7222;57.346;12.150;2022-08-19T13:16:37;12.65;;;11.57;;
14276;SDS011;7222;57.346;12.150;2022-08-19T13:19:05;11.40;;;10.50;;
14276;SDS011;7222;57.346;12.150;2022-08-19T13:21:32;11.98;;;11.02;;
14276;SDS011;7222;57.346;12.150;2022-08-19T13:23:59;13.73;;;12.52;;
14276;SDS011;7222;57.346;12.150;2022-08-19T13:26:26;15.02;;;13.82;;
14276;SDS011;7222;57.346;12.150;2022-08-19T13:28:53;11.45;;;10.60;;
14276;SDS011;7222;57.346;12.150;2022-08-19T13:31:39;11.45;;;10.55;;
14276;SDS011;7222;57.346;12.150;2022-08-19T13:34:26;12.70;;;11.77;;
14276;SDS011;7222;57.346;12.150;2022-08-19T13:36:55;11.05;;;10.13;;
14276;SDS011;7222;57.346;12.150;2022-08-19T13:39:22;12.77;;;11.70;;
14276;SDS011;7222;57.346;12.150;2022-08-19T13:41:49;12.88;;;11.77;;
14276;SDS011;7222;57.346;12.150;2022-08-19T13:44:17;12.02;;;11.13;;
14276;SDS011;7222;57.346;12.150;2022-08-19T13:46:46;12.80;;;11.80;;
14276;SDS011;7222;57.346;12.150;2022-08-19T13:49:17;11.95;;;11.05;;
14276;SDS011;7222;57.346;12.150;2022-08-19T13:51:44;12.18;;;11.18;;
14276;SDS011;7222;57.346;12.150;2022-08-19T13:54:11;12.88;;;11.77;;
14276;SDS011;7222;57.346;12.150;2022-08-19T13:56:40;15.52;;;14.13;;
14276;SDS011;7222;57.346;12.150;2022-08-19T13:59:07;13.55;;;12.45;;
14276;SDS011;7222;57.346;12.150;2022-08-19T14:01:34;12.50;;;11.50;;
14276;SDS011;7222;57.346;12.150;2022-08-19T14:04:03;10.68;;;9.88;;
14276;SDS011;7222;57.346;12.150;2022-08-19T14:06:30;8.70;;;7.90;;
14276;SDS011;7222;57.346;12.150;2022-08-19T14:08:57;8.50;;;7.90;;
14276;SDS011;7222;57.346;12.150;2022-08-19T14:11:24;6.47;;;5.88;;
14276;SDS011;7222;57.346;12.150;2022-08-19T14:13:52;6.30;;;5.60;;
14276;SDS011;7222;57.346;12.150;2022-08-19T14:16:19;7.03;;;6.53;;
14276;SDS011;7222;57.346;12.150;2022-08-19T14:18:46;7.35;;;6.75;;
14276;SDS011;7222;57.346;12.150;2022-08-19T14:21:16;7.70;;;7.10;;
14276;SDS011;7222;57.346;12.150;2022-08-19T14:23:45;6.80;;;6.20;;
14276;SDS011;7222;57.346;12.150;2022-08-19T14:26:13;6.53;;;5.93;;
14276;SDS011;7222;57.346;12.150;2022-08-19T14:28:43;6.20;;;5.53;;
14276;SDS011;7222;57.346;12.150;2022-08-19T14:31:11;5.65;;;5.25;;
14276;SDS011;7222;57.346;12.150;2022-08-19T14:33:41;6.18;;;5.70;;
14276;SDS011;7222;57.346;12.150;2022-08-19T14:36:08;5.00;;;4.50;;